sensor_id;sensor_type;location;lat;lon;timestamp;temperature;humidity
55785;DHT22;41709;52.536;5.688;2023-02-26T00:01:21;1.80;75.10
55785;DHT22;41709;52.536;5.688;2023-02-26T00:03:47;1.70;75.00
55785;DHT22;41709;52.536;5.688;2023-02-26T00:06:13;1.70;75.10
55785;DHT22;41709;52.536;5.688;2023-02-26T00:08:38;1.60;74.20
55785;DHT22;41709;52.536;5.688;2023-02-26T00:11:08;1.60;74.00
55785;DHT22;41709;52.536;5.688;2023-02-26T00:13:35;1.60;74.10
55785;DHT22;41709;52.536;5.688;2023-02-26T00:16:01;1.60;74.20
55785;DHT22;41709;52.536;5.688;2023-02-26T00:18:27;1.60;74.40
55785;DHT22;41709;52.536;5.688;2023-02-26T00:20:53;1.60;74.30
55785;DHT22;41709;52.536;5.688;2023-02-26T00:23:19;1.60;74.70
55785;DHT22;41709;52.536;5.688;2023-02-26T00:25:45;1.60;74.90
55785;DHT22;41709;52.536;5.688;2023-02-26T00:28:11;1.60;75.10
55785;DHT22;41709;52.536;5.688;2023-02-26T00:30:37;1.70;75.30
55785;DHT22;41709;52.536;5.688;2023-02-26T00:33:04;1.60;75.20
55785;DHT22;41709;52.536;5.688;2023-02-26T00:35:30;1.70;75.40
55785;DHT22;41709;52.536;5.688;2023-02-26T00:38:05;1.70;75.40
55785;DHT22;41709;52.536;5.688;2023-02-26T00:40:44;1.80;75.30
55785;DHT22;41709;52.536;5.688;2023-02-26T00:43:25;1.80;75.20
55785;DHT22;41709;52.536;5.688;2023-02-26T00:51:58;1.60;73.70
55785;DHT22;41709;52.536;5.688;2023-02-26T00:54:28;1.60;73.70
55785;DHT22;41709;52.536;5.688;2023-02-26T00:56:55;1.60;73.00
55785;DHT22;41709;52.536;5.688;2023-02-26T00:59:22;1.50;73.30
55785;DHT22;41709;52.536;5.688;2023-02-26T01:01:48;1.50;73.40
55785;DHT22;41709;52.536;5.688;2023-02-26T01:04:17;1.40;73.60
55785;DHT22;41709;52.536;5.688;2023-02-26T01:06:45;1.40;73.70
55785;DHT22;41709;52.536;5.688;2023-02-26T01:09:28;1.50;73.80
55785;DHT22;41709;52.536;5.688;2023-02-26T01:11:57;1.50;73.80
55785;DHT22;41709;52.536;5.688;2023-02-26T01:14:25;1.50;73.70
55785;DHT22;41709;52.536;5.688;2023-02-26T01:17:24;1.50;73.50
55785;DHT22;41709;52.536;5.688;2023-02-26T01:20:04;1.50;72.90
55785;DHT22;41709;52.536;5.688;2023-02-26T01:22:54;1.50;72.60
55785;DHT22;41709;52.536;5.688;2023-02-26T01:25:35;1.50;72.50
55785;DHT22;41709;52.536;5.688;2023-02-26T01:28:01;1.50;72.40
55785;DHT22;41709;52.536;5.688;2023-02-26T01:30:27;1.40;72.50
55785;DHT22;41709;52.536;5.688;2023-02-26T01:33:09;1.40;72.40
55785;DHT22;41709;52.536;5.688;2023-02-26T01:35:44;1.40;72.40
55785;DHT22;41709;52.536;5.688;2023-02-26T01:48:58;1.30;72.40
55785;DHT22;41709;52.536;5.688;2023-02-26T01:51:45;1.30;72.20
55785;DHT22;41709;52.536;5.688;2023-02-26T01:54:12;1.30;72.30
55785;DHT22;41709;52.536;5.688;2023-02-26T01:56:40;1.20;72.50
55785;DHT22;41709;52.536;5.688;2023-02-26T01:59:07;1.20;72.90
55785;DHT22;41709;52.536;5.688;2023-02-26T02:01:36;1.20;73.00
55785;DHT22;41709;52.536;5.688;2023-02-26T02:04:03;1.20;72.90
55785;DHT22;41709;52.536;5.688;2023-02-26T02:06:30;1.20;73.10
55785;DHT22;41709;52.536;5.688;2023-02-26T02:08:56;1.10;72.80
55785;DHT22;41709;52.536;5.688;2023-02-26T02:11:22;1.10;72.80
55785;DHT22;41709;52.536;5.688;2023-02-26T02:16:56;1.10;72.90
55785;DHT22;41709;52.536;5.688;2023-02-26T02:19:42;1.10;72.80
55785;DHT22;41709;52.536;5.688;2023-02-26T02:28:36;1.00;73.10
55785;DHT22;41709;52.536;5.688;2023-02-26T02:31:29;1.00;73.30
55785;DHT22;41709;52.536;5.688;2023-02-26T02:34:02;0.90;73.80
55785;DHT22;41709;52.536;5.688;2023-02-26T02:36:40;0.90;73.80
55785;DHT22;41709;52.536;5.688;2023-02-26T02:39:33;0.90;73.70
55785;DHT22;41709;52.536;5.688;2023-02-26T02:42:18;0.80;73.60
55785;DHT22;41709;52.536;5.688;2023-02-26T02:44:48;0.90;73.70
55785;DHT22;41709;52.536;5.688;2023-02-26T02:47:16;0.90;73.70
55785;DHT22;41709;52.536;5.688;2023-02-26T02:49:50;0.90;73.80
55785;DHT22;41709;52.536;5.688;2023-02-26T02:52:23;0.90;73.70
55785;DHT22;41709;52.536;5.688;2023-02-26T02:54:55;0.80;73.80
55785;DHT22;41709;52.536;5.688;2023-02-26T02:57:27;0.80;73.90
55785;DHT22;41709;52.536;5.688;2023-02-26T02:59:58;0.80;73.90
55785;DHT22;41709;52.536;5.688;2023-02-26T03:05:15;0.80;74.00
55785;DHT22;41709;52.536;5.688;2023-02-26T03:07:57;0.80;74.10
55785;DHT22;41709;52.536;5.688;2023-02-26T03:10:24;0.70;74.00
55785;DHT22;41709;52.536;5.688;2023-02-26T03:12:50;0.80;74.00
55785;DHT22;41709;52.536;5.688;2023-02-26T03:15:20;0.70;74.30
55785;DHT22;41709;52.536;5.688;2023-02-26T03:17:58;0.70;74.10
55785;DHT22;41709;52.536;5.688;2023-02-26T03:20:29;0.60;75.00
55785;DHT22;41709;52.536;5.688;2023-02-26T03:23:13;0.60;74.20
55785;DHT22;41709;52.536;5.688;2023-02-26T03:31:18;0.60;74.50
55785;DHT22;41709;52.536;5.688;2023-02-26T03:34:16;0.50;74.30
55785;DHT22;41709;52.536;5.688;2023-02-26T03:37:05;0.50;74.50
55785;DHT22;41709;52.536;5.688;2023-02-26T03:39:40;0.60;74.50
55785;DHT22;41709;52.536;5.688;2023-02-26T03:42:28;0.60;74.40
55785;DHT22;41709;52.536;5.688;2023-02-26T03:45:00;0.60;74.40
55785;DHT22;41709;52.536;5.688;2023-02-26T03:47:26;0.60;73.90
55785;DHT22;41709;52.536;5.688;2023-02-26T03:50:13;0.60;74.50
55785;DHT22;41709;52.536;5.688;2023-02-26T03:52:42;0.60;73.70
55785;DHT22;41709;52.536;5.688;2023-02-26T03:55:26;0.60;74.10
55785;DHT22;41709;52.536;5.688;2023-02-26T03:57:53;0.60;74.30
55785;DHT22;41709;52.536;5.688;2023-02-26T04:00:20;0.60;74.50
55785;DHT22;41709;52.536;5.688;2023-02-26T04:05:46;0.50;74.80
55785;DHT22;41709;52.536;5.688;2023-02-26T04:08:13;0.50;75.10
55785;DHT22;41709;52.536;5.688;2023-02-26T04:10:46;0.60;75.10
55785;DHT22;41709;52.536;5.688;2023-02-26T04:13:16;0.60;75.00
55785;DHT22;41709;52.536;5.688;2023-02-26T04:15:42;0.60;74.90
55785;DHT22;41709;52.536;5.688;2023-02-26T04:18:07;0.60;74.80
55785;DHT22;41709;52.536;5.688;2023-02-26T04:20:33;0.50;75.10
55785;DHT22;41709;52.536;5.688;2023-02-26T04:22:58;0.50;74.20
55785;DHT22;41709;52.536;5.688;2023-02-26T04:25:24;0.50;74.20
55785;DHT22;41709;52.536;5.688;2023-02-26T04:27:49;0.50;74.10
55785;DHT22;41709;52.536;5.688;2023-02-26T04:30:15;0.50;74.00
55785;DHT22;41709;52.536;5.688;2023-02-26T04:32:41;0.60;74.30
55785;DHT22;41709;52.536;5.688;2023-02-26T04:35:07;0.50;74.40
55785;DHT22;41709;52.536;5.688;2023-02-26T04:37:32;0.50;74.40
55785;DHT22;41709;52.536;5.688;2023-02-26T04:39:58;0.50;74.50
55785;DHT22;41709;52.536;5.688;2023-02-26T04:42:24;0.50;74.50
55785;DHT22;41709;52.536;5.688;2023-02-26T04:44:49;0.50;74.50
55785;DHT22;41709;52.536;5.688;2023-02-26T04:47:15;0.50;74.50
55785;DHT22;41709;52.536;5.688;2023-02-26T04:49:40;0.50;74.80
55785;DHT22;41709;52.536;5.688;2023-02-26T04:52:06;0.40;74.80
55785;DHT22;41709;52.536;5.688;2023-02-26T04:54:31;0.40;75.10
55785;DHT22;41709;52.536;5.688;2023-02-26T04:56:57;0.40;75.30
55785;DHT22;41709;52.536;5.688;2023-02-26T04:59:23;0.20;75.30
55785;DHT22;41709;52.536;5.688;2023-02-26T05:01:48;0.20;75.60
55785;DHT22;41709;52.536;5.688;2023-02-26T05:04:14;0.20;75.60
55785;DHT22;41709;52.536;5.688;2023-02-26T05:06:39;0.10;75.50
55785;DHT22;41709;52.536;5.688;2023-02-26T05:09:05;0.20;75.50
55785;DHT22;41709;52.536;5.688;2023-02-26T05:11:30;0.20;75.60
55785;DHT22;41709;52.536;5.688;2023-02-26T05:13:56;0.20;75.60
55785;DHT22;41709;52.536;5.688;2023-02-26T05:16:21;0.20;75.80
55785;DHT22;41709;52.536;5.688;2023-02-26T05:18:47;0.20;75.80
55785;DHT22;41709;52.536;5.688;2023-02-26T05:21:12;0.20;75.90
55785;DHT22;41709;52.536;5.688;2023-02-26T05:23:38;0.10;75.90
55785;DHT22;41709;52.536;5.688;2023-02-26T05:26:04;0.10;76.00
55785;DHT22;41709;52.536;5.688;2023-02-26T05:28:29;0.20;76.00
55785;DHT22;41709;52.536;5.688;2023-02-26T05:30:56;0.10;76.20
55785;DHT22;41709;52.536;5.688;2023-02-26T05:33:22;0.10;76.40
55785;DHT22;41709;52.536;5.688;2023-02-26T05:35:48;0.10;76.30
55785;DHT22;41709;52.536;5.688;2023-02-26T05:38:13;0.10;76.30
55785;DHT22;41709;52.536;5.688;2023-02-26T05:40:39;0.00;76.40
55785;DHT22;41709;52.536;5.688;2023-02-26T05:43:05;0.00;76.60
55785;DHT22;41709;52.536;5.688;2023-02-26T05:45:30;-0.10;76.60
55785;DHT22;41709;52.536;5.688;2023-02-26T05:47:56;-0.10;76.70
55785;DHT22;41709;52.536;5.688;2023-02-26T05:50:21;-0.10;76.90
55785;DHT22;41709;52.536;5.688;2023-02-26T05:52:47;-0.20;77.20
55785;DHT22;41709;52.536;5.688;2023-02-26T05:55:13;-0.20;77.40
55785;DHT22;41709;52.536;5.688;2023-02-26T05:57:38;-0.20;77.60
55785;DHT22;41709;52.536;5.688;2023-02-26T06:00:05;-0.30;77.60
55785;DHT22;41709;52.536;5.688;2023-02-26T06:02:31;-0.30;77.70
55785;DHT22;41709;52.536;5.688;2023-02-26T06:04:57;-0.20;77.80
55785;DHT22;41709;52.536;5.688;2023-02-26T06:07:22;-0.30;77.80
55785;DHT22;41709;52.536;5.688;2023-02-26T06:09:48;-0.30;77.90
55785;DHT22;41709;52.536;5.688;2023-02-26T06:12:14;-0.30;78.10
55785;DHT22;41709;52.536;5.688;2023-02-26T06:14:40;-0.30;77.80
55785;DHT22;41709;52.536;5.688;2023-02-26T06:17:06;-0.30;77.80
55785;DHT22;41709;52.536;5.688;2023-02-26T06:19:32;-0.30;77.80
55785;DHT22;41709;52.536;5.688;2023-02-26T06:21:58;-0.30;77.60
55785;DHT22;41709;52.536;5.688;2023-02-26T06:24:24;-0.30;77.30
55785;DHT22;41709;52.536;5.688;2023-02-26T06:26:49;-0.30;77.10
55785;DHT22;41709;52.536;5.688;2023-02-26T06:29:15;-0.30;77.10
55785;DHT22;41709;52.536;5.688;2023-02-26T06:31:43;-0.30;77.20
55785;DHT22;41709;52.536;5.688;2023-02-26T06:34:09;-0.20;77.10
55785;DHT22;41709;52.536;5.688;2023-02-26T06:36:34;-0.20;76.90
55785;DHT22;41709;52.536;5.688;2023-02-26T06:39:00;-0.20;76.70
55785;DHT22;41709;52.536;5.688;2023-02-26T06:41:26;-0.10;76.70
55785;DHT22;41709;52.536;5.688;2023-02-26T06:43:51;-0.10;76.70
55785;DHT22;41709;52.536;5.688;2023-02-26T06:46:17;-0.10;76.70
55785;DHT22;41709;52.536;5.688;2023-02-26T06:48:42;0.00;76.80
55785;DHT22;41709;52.536;5.688;2023-02-26T06:51:08;-0.10;76.70
55785;DHT22;41709;52.536;5.688;2023-02-26T06:53:34;0.00;76.60
55785;DHT22;41709;52.536;5.688;2023-02-26T06:55:59;0.00;76.60
55785;DHT22;41709;52.536;5.688;2023-02-26T06:58:25;0.00;76.50
55785;DHT22;41709;52.536;5.688;2023-02-26T07:00:50;0.00;76.50
55785;DHT22;41709;52.536;5.688;2023-02-26T07:03:17;0.00;76.40
55785;DHT22;41709;52.536;5.688;2023-02-26T07:05:44;0.00;76.30
55785;DHT22;41709;52.536;5.688;2023-02-26T07:08:10;0.10;76.30
55785;DHT22;41709;52.536;5.688;2023-02-26T07:10:36;0.10;76.40
55785;DHT22;41709;52.536;5.688;2023-02-26T07:13:02;0.10;76.20
55785;DHT22;41709;52.536;5.688;2023-02-26T07:15:28;0.10;76.30
55785;DHT22;41709;52.536;5.688;2023-02-26T07:17:54;0.20;76.40
55785;DHT22;41709;52.536;5.688;2023-02-26T07:20:19;0.10;76.60
55785;DHT22;41709;52.536;5.688;2023-02-26T07:22:47;0.10;76.60
55785;DHT22;41709;52.536;5.688;2023-02-26T07:25:14;0.10;76.50
55785;DHT22;41709;52.536;5.688;2023-02-26T07:27:40;0.10;76.40
55785;DHT22;41709;52.536;5.688;2023-02-26T07:30:06;0.10;76.10
55785;DHT22;41709;52.536;5.688;2023-02-26T07:32:32;0.10;76.10
55785;DHT22;41709;52.536;5.688;2023-02-26T07:34:58;0.00;76.20
55785;DHT22;41709;52.536;5.688;2023-02-26T07:37:24;0.00;76.60
55785;DHT22;41709;52.536;5.688;2023-02-26T07:39:50;0.00;76.70
55785;DHT22;41709;52.536;5.688;2023-02-26T07:42:15;0.10;76.60
55785;DHT22;41709;52.536;5.688;2023-02-26T07:44:41;0.10;76.50
55785;DHT22;41709;52.536;5.688;2023-02-26T07:47:07;0.10;76.70
55785;DHT22;41709;52.536;5.688;2023-02-26T07:49:33;0.20;76.70
55785;DHT22;41709;52.536;5.688;2023-02-26T07:51:59;0.20;76.90
55785;DHT22;41709;52.536;5.688;2023-02-26T07:54:25;0.30;76.70
55785;DHT22;41709;52.536;5.688;2023-02-26T07:56:50;0.30;76.30
55785;DHT22;41709;52.536;5.688;2023-02-26T07:59:16;0.40;76.00
55785;DHT22;41709;52.536;5.688;2023-02-26T08:01:42;0.40;75.60
55785;DHT22;41709;52.536;5.688;2023-02-26T08:04:08;0.50;75.60
55785;DHT22;41709;52.536;5.688;2023-02-26T08:06:34;0.50;75.10
55785;DHT22;41709;52.536;5.688;2023-02-26T08:09:00;0.60;74.90
55785;DHT22;41709;52.536;5.688;2023-02-26T08:11:26;0.70;74.30
55785;DHT22;41709;52.536;5.688;2023-02-26T08:13:51;0.70;74.20
55785;DHT22;41709;52.536;5.688;2023-02-26T08:16:17;0.80;73.90
55785;DHT22;41709;52.536;5.688;2023-02-26T08:18:42;0.80;74.10
55785;DHT22;41709;52.536;5.688;2023-02-26T08:21:08;0.90;74.00
55785;DHT22;41709;52.536;5.688;2023-02-26T08:23:33;1.00;74.00
55785;DHT22;41709;52.536;5.688;2023-02-26T08:26:01;1.00;73.80
55785;DHT22;41709;52.536;5.688;2023-02-26T08:28:26;1.10;73.80
55785;DHT22;41709;52.536;5.688;2023-02-26T08:30:53;1.20;74.00
55785;DHT22;41709;52.536;5.688;2023-02-26T08:33:18;1.20;73.10
55785;DHT22;41709;52.536;5.688;2023-02-26T08:35:44;1.20;72.50
55785;DHT22;41709;52.536;5.688;2023-02-26T08:38:09;1.20;72.40
55785;DHT22;41709;52.536;5.688;2023-02-26T08:40:35;1.20;72.40
55785;DHT22;41709;52.536;5.688;2023-02-26T08:43:01;1.20;72.10
55785;DHT22;41709;52.536;5.688;2023-02-26T08:45:28;1.30;72.50
55785;DHT22;41709;52.536;5.688;2023-02-26T08:47:54;1.40;71.50
55785;DHT22;41709;52.536;5.688;2023-02-26T08:50:20;1.30;71.90
55785;DHT22;41709;52.536;5.688;2023-02-26T08:52:46;1.40;72.00
55785;DHT22;41709;52.536;5.688;2023-02-26T08:55:11;1.40;71.80
55785;DHT22;41709;52.536;5.688;2023-02-26T08:57:37;1.50;71.50
55785;DHT22;41709;52.536;5.688;2023-02-26T09:00:04;1.50;71.30
55785;DHT22;41709;52.536;5.688;2023-02-26T09:02:30;1.60;70.90
55785;DHT22;41709;52.536;5.688;2023-02-26T09:04:55;1.60;70.40
55785;DHT22;41709;52.536;5.688;2023-02-26T09:07:21;1.50;70.00
55785;DHT22;41709;52.536;5.688;2023-02-26T09:09:47;1.50;70.30
55785;DHT22;41709;52.536;5.688;2023-02-26T09:12:12;1.50;70.40
55785;DHT22;41709;52.536;5.688;2023-02-26T09:14:38;1.60;70.60
55785;DHT22;41709;52.536;5.688;2023-02-26T09:17:03;1.60;70.40
55785;DHT22;41709;52.536;5.688;2023-02-26T09:19:29;1.60;70.00
55785;DHT22;41709;52.536;5.688;2023-02-26T09:21:54;1.70;70.40
55785;DHT22;41709;52.536;5.688;2023-02-26T09:24:20;1.80;70.80
55785;DHT22;41709;52.536;5.688;2023-02-26T09:26:45;1.90;70.00
55785;DHT22;41709;52.536;5.688;2023-02-26T09:29:11;2.00;69.70
55785;DHT22;41709;52.536;5.688;2023-02-26T09:31:38;1.80;69.30
55785;DHT22;41709;52.536;5.688;2023-02-26T09:34:04;2.00;70.00
55785;DHT22;41709;52.536;5.688;2023-02-26T09:36:30;2.10;69.80
55785;DHT22;41709;52.536;5.688;2023-02-26T09:38:56;2.10;68.70
55785;DHT22;41709;52.536;5.688;2023-02-26T09:41:27;2.00;68.80
55785;DHT22;41709;52.536;5.688;2023-02-26T09:52:07;2.10;68.30
55785;DHT22;41709;52.536;5.688;2023-02-26T09:54:50;2.10;68.10
55785;DHT22;41709;52.536;5.688;2023-02-26T09:57:33;2.10;67.60
55785;DHT22;41709;52.536;5.688;2023-02-26T10:00:01;2.20;68.70
55785;DHT22;41709;52.536;5.688;2023-02-26T10:08:01;2.40;68.30
55785;DHT22;41709;52.536;5.688;2023-02-26T10:10:35;2.50;68.20
55785;DHT22;41709;52.536;5.688;2023-02-26T10:13:03;2.50;67.60
55785;DHT22;41709;52.536;5.688;2023-02-26T10:15:34;2.40;67.60
55785;DHT22;41709;52.536;5.688;2023-02-26T10:18:07;2.50;68.10
55785;DHT22;41709;52.536;5.688;2023-02-26T10:23:37;2.50;67.90
55785;DHT22;41709;52.536;5.688;2023-02-26T10:26:06;2.50;67.70
55785;DHT22;41709;52.536;5.688;2023-02-26T10:31:17;2.60;67.30
55785;DHT22;41709;52.536;5.688;2023-02-26T10:33:58;2.50;67.00
55785;DHT22;41709;52.536;5.688;2023-02-26T10:38:57;2.50;68.10
55785;DHT22;41709;52.536;5.688;2023-02-26T10:41:27;2.60;68.70
55785;DHT22;41709;52.536;5.688;2023-02-26T10:47:04;2.70;68.20
55785;DHT22;41709;52.536;5.688;2023-02-26T10:49:37;2.60;69.30
55785;DHT22;41709;52.536;5.688;2023-02-26T10:52:30;2.60;68.20
55785;DHT22;41709;52.536;5.688;2023-02-26T10:55:40;2.40;68.60
55785;DHT22;41709;52.536;5.688;2023-02-26T10:58:14;2.70;68.40
55785;DHT22;41709;52.536;5.688;2023-02-26T11:00:46;2.80;68.10
55785;DHT22;41709;52.536;5.688;2023-02-26T11:03:18;2.80;68.20
55785;DHT22;41709;52.536;5.688;2023-02-26T11:05:44;2.90;69.10
55785;DHT22;41709;52.536;5.688;2023-02-26T11:08:26;2.90;68.50
55785;DHT22;41709;52.536;5.688;2023-02-26T11:10:53;2.90;68.80
55785;DHT22;41709;52.536;5.688;2023-02-26T11:13:21;3.00;68.20
55785;DHT22;41709;52.536;5.688;2023-02-26T11:15:49;3.10;68.00
55785;DHT22;41709;52.536;5.688;2023-02-26T11:18:20;3.10;67.00
55785;DHT22;41709;52.536;5.688;2023-02-26T11:20:48;3.20;67.60
55785;DHT22;41709;52.536;5.688;2023-02-26T11:23:17;3.30;67.80
55785;DHT22;41709;52.536;5.688;2023-02-26T11:25:44;3.30;67.50
55785;DHT22;41709;52.536;5.688;2023-02-26T11:28:24;3.40;67.10
55785;DHT22;41709;52.536;5.688;2023-02-26T11:30:50;3.50;66.90
55785;DHT22;41709;52.536;5.688;2023-02-26T11:33:26;3.50;65.90
55785;DHT22;41709;52.536;5.688;2023-02-26T11:35:59;3.50;65.50
55785;DHT22;41709;52.536;5.688;2023-02-26T11:38:26;3.60;65.50
55785;DHT22;41709;52.536;5.688;2023-02-26T11:40:55;3.70;66.00
55785;DHT22;41709;52.536;5.688;2023-02-26T11:43:23;3.70;66.20
55785;DHT22;41709;52.536;5.688;2023-02-26T11:45:58;3.70;66.20
55785;DHT22;41709;52.536;5.688;2023-02-26T11:48:28;3.80;66.40
55785;DHT22;41709;52.536;5.688;2023-02-26T11:50:59;3.90;64.90
55785;DHT22;41709;52.536;5.688;2023-02-26T11:53:36;3.90;65.90
55785;DHT22;41709;52.536;5.688;2023-02-26T11:56:22;4.00;65.60
55785;DHT22;41709;52.536;5.688;2023-02-26T11:58:51;4.10;64.70
55785;DHT22;41709;52.536;5.688;2023-02-26T12:01:16;4.30;64.30
55785;DHT22;41709;52.536;5.688;2023-02-26T12:03:46;4.30;64.70
55785;DHT22;41709;52.536;5.688;2023-02-26T12:06:17;4.40;64.00
55785;DHT22;41709;52.536;5.688;2023-02-26T12:08:43;4.40;64.60
55785;DHT22;41709;52.536;5.688;2023-02-26T12:14:43;4.50;64.80
55785;DHT22;41709;52.536;5.688;2023-02-26T12:17:50;4.50;63.20
55785;DHT22;41709;52.536;5.688;2023-02-26T12:20:31;4.60;62.90
55785;DHT22;41709;52.536;5.688;2023-02-26T12:23:26;4.50;62.90
55785;DHT22;41709;52.536;5.688;2023-02-26T12:26:08;4.50;62.10
55785;DHT22;41709;52.536;5.688;2023-02-26T12:28:49;4.40;63.00
55785;DHT22;41709;52.536;5.688;2023-02-26T12:31:49;4.40;62.00
55785;DHT22;41709;52.536;5.688;2023-02-26T12:50:41;4.40;61.60
55785;DHT22;41709;52.536;5.688;2023-02-26T13:15:31;4.50;61.80
55785;DHT22;41709;52.536;5.688;2023-02-26T13:18:29;4.50;61.60
55785;DHT22;41709;52.536;5.688;2023-02-26T13:21:02;4.50;62.80
55785;DHT22;41709;52.536;5.688;2023-02-26T13:26:16;4.70;64.60
55785;DHT22;41709;52.536;5.688;2023-02-26T13:28:54;4.90;64.50
55785;DHT22;41709;52.536;5.688;2023-02-26T13:31:46;4.90;63.50
55785;DHT22;41709;52.536;5.688;2023-02-26T13:34:18;5.00;63.70
55785;DHT22;41709;52.536;5.688;2023-02-26T13:36:45;5.10;64.30
55785;DHT22;41709;52.536;5.688;2023-02-26T13:39:37;5.00;63.40
55785;DHT22;41709;52.536;5.688;2023-02-26T13:42:40;5.00;61.50
55785;DHT22;41709;52.536;5.688;2023-02-26T13:51:14;4.80;62.10
55785;DHT22;41709;52.536;5.688;2023-02-26T13:53:54;4.90;61.00
55785;DHT22;41709;52.536;5.688;2023-02-26T13:59:16;4.90;60.40
55785;DHT22;41709;52.536;5.688;2023-02-26T14:01:53;5.10;60.40
55785;DHT22;41709;52.536;5.688;2023-02-26T14:06:57;5.80;59.60
55785;DHT22;41709;52.536;5.688;2023-02-26T14:14:42;6.00;60.10
55785;DHT22;41709;52.536;5.688;2023-02-26T14:19:41;6.00;59.40
55785;DHT22;41709;52.536;5.688;2023-02-26T14:24:59;6.60;57.90
55785;DHT22;41709;52.536;5.688;2023-02-26T14:27:33;7.00;57.10
55785;DHT22;41709;52.536;5.688;2023-02-26T14:30:29;7.40;57.10
55785;DHT22;41709;52.536;5.688;2023-02-26T14:35:33;8.10;56.10
55785;DHT22;41709;52.536;5.688;2023-02-26T14:38:20;8.20;56.30
55785;DHT22;41709;52.536;5.688;2023-02-26T14:40:50;8.30;54.10
55785;DHT22;41709;52.536;5.688;2023-02-26T14:43:21;8.40;53.30
55785;DHT22;41709;52.536;5.688;2023-02-26T14:45:53;8.40;53.70
55785;DHT22;41709;52.536;5.688;2023-02-26T14:48:21;8.40;52.60
55785;DHT22;41709;52.536;5.688;2023-02-26T14:51:09;8.50;51.20
55785;DHT22;41709;52.536;5.688;2023-02-26T14:56:14;8.60;52.10
55785;DHT22;41709;52.536;5.688;2023-02-26T14:59:09;8.80;52.90
55785;DHT22;41709;52.536;5.688;2023-02-26T15:01:48;8.90;53.70
55785;DHT22;41709;52.536;5.688;2023-02-26T15:06:49;8.90;52.50
55785;DHT22;41709;52.536;5.688;2023-02-26T15:24:06;8.50;54.70
55785;DHT22;41709;52.536;5.688;2023-02-26T15:26:36;8.60;55.30
55785;DHT22;41709;52.536;5.688;2023-02-26T15:29:07;8.40;53.90
55785;DHT22;41709;52.536;5.688;2023-02-26T15:31:52;8.10;55.50
55785;DHT22;41709;52.536;5.688;2023-02-26T15:34:18;7.80;56.20
55785;DHT22;41709;52.536;5.688;2023-02-26T15:36:47;7.60;56.80
55785;DHT22;41709;52.536;5.688;2023-02-26T15:39:15;7.20;56.20
55785;DHT22;41709;52.536;5.688;2023-02-26T15:41:42;7.00;57.30
55785;DHT22;41709;52.536;5.688;2023-02-26T15:44:13;6.70;58.00
55785;DHT22;41709;52.536;5.688;2023-02-26T15:46:42;6.50;57.60
55785;DHT22;41709;52.536;5.688;2023-02-26T15:49:54;6.10;59.10
55785;DHT22;41709;52.536;5.688;2023-02-26T15:51:56;5.90;60.90
55785;DHT22;41709;52.536;5.688;2023-02-26T15:54:26;5.70;60.90
55785;DHT22;41709;52.536;5.688;2023-02-26T15:56:53;5.60;61.20
55785;DHT22;41709;52.536;5.688;2023-02-26T15:59:21;5.40;62.10
55785;DHT22;41709;52.536;5.688;2023-02-26T16:01:49;5.30;62.40
55785;DHT22;41709;52.536;5.688;2023-02-26T16:04:18;5.20;63.10
55785;DHT22;41709;52.536;5.688;2023-02-26T16:06:48;5.10;62.70
55785;DHT22;41709;52.536;5.688;2023-02-26T16:09:23;5.00;63.30
55785;DHT22;41709;52.536;5.688;2023-02-26T16:11:53;5.00;64.30
55785;DHT22;41709;52.536;5.688;2023-02-26T16:14:30;5.00;64.80
55785;DHT22;41709;52.536;5.688;2023-02-26T16:16:58;5.00;65.30
55785;DHT22;41709;52.536;5.688;2023-02-26T16:19:43;4.90;63.40
55785;DHT22;41709;52.536;5.688;2023-02-26T16:22:25;4.80;61.80
55785;DHT22;41709;52.536;5.688;2023-02-26T16:25:04;4.60;62.30
55785;DHT22;41709;52.536;5.688;2023-02-26T16:27:31;4.50;63.20
55785;DHT22;41709;52.536;5.688;2023-02-26T16:30:00;4.50;64.50
55785;DHT22;41709;52.536;5.688;2023-02-26T16:32:29;4.50;64.80
55785;DHT22;41709;52.536;5.688;2023-02-26T16:34:58;4.40;65.50
55785;DHT22;41709;52.536;5.688;2023-02-26T16:37:34;4.40;64.50
55785;DHT22;41709;52.536;5.688;2023-02-26T16:40:16;4.40;65.20
55785;DHT22;41709;52.536;5.688;2023-02-26T16:48:23;4.20;66.40
55785;DHT22;41709;52.536;5.688;2023-02-26T16:50:57;4.10;67.20
55785;DHT22;41709;52.536;5.688;2023-02-26T16:53:53;4.10;67.60
55785;DHT22;41709;52.536;5.688;2023-02-26T16:56:24;4.00;68.30
55785;DHT22;41709;52.536;5.688;2023-02-26T17:01:21;3.90;67.80
55785;DHT22;41709;52.536;5.688;2023-02-26T17:03:49;3.90;68.30
55785;DHT22;41709;52.536;5.688;2023-02-26T17:06:21;3.80;67.90
55785;DHT22;41709;52.536;5.688;2023-02-26T17:11:37;3.70;67.70
55785;DHT22;41709;52.536;5.688;2023-02-26T17:16:44;3.70;68.60
55785;DHT22;41709;52.536;5.688;2023-02-26T17:19:10;3.70;68.80
55785;DHT22;41709;52.536;5.688;2023-02-26T17:21:40;3.60;69.10
55785;DHT22;41709;52.536;5.688;2023-02-26T17:24:07;3.60;69.30
55785;DHT22;41709;52.536;5.688;2023-02-26T17:26:33;3.60;69.60
55785;DHT22;41709;52.536;5.688;2023-02-26T17:28:59;3.60;70.00
55785;DHT22;41709;52.536;5.688;2023-02-26T17:31:25;3.60;70.10
55785;DHT22;41709;52.536;5.688;2023-02-26T17:33:50;3.60;70.30
55785;DHT22;41709;52.536;5.688;2023-02-26T17:36:17;3.60;70.40
55785;DHT22;41709;52.536;5.688;2023-02-26T17:38:44;3.50;70.40
55785;DHT22;41709;52.536;5.688;2023-02-26T17:41:15;3.50;71.40
55785;DHT22;41709;52.536;5.688;2023-02-26T17:43:41;3.50;70.80
55785;DHT22;41709;52.536;5.688;2023-02-26T17:46:09;3.50;70.90
55785;DHT22;41709;52.536;5.688;2023-02-26T17:48:35;3.50;71.00
55785;DHT22;41709;52.536;5.688;2023-02-26T17:51:02;3.50;70.70
55785;DHT22;41709;52.536;5.688;2023-02-26T17:53:28;3.50;70.80
55785;DHT22;41709;52.536;5.688;2023-02-26T17:56:15;3.40;71.00
55785;DHT22;41709;52.536;5.688;2023-02-26T17:58:41;3.40;71.40
55785;DHT22;41709;52.536;5.688;2023-02-26T18:01:09;3.40;71.40
55785;DHT22;41709;52.536;5.688;2023-02-26T18:03:35;3.30;71.50
55785;DHT22;41709;52.536;5.688;2023-02-26T18:06:01;3.40;71.60
55785;DHT22;41709;52.536;5.688;2023-02-26T18:08:32;3.40;71.70
55785;DHT22;41709;52.536;5.688;2023-02-26T18:11:01;3.40;71.80
55785;DHT22;41709;52.536;5.688;2023-02-26T18:13:29;3.40;71.70
55785;DHT22;41709;52.536;5.688;2023-02-26T18:15:55;3.40;71.70
55785;DHT22;41709;52.536;5.688;2023-02-26T18:18:23;3.40;71.80
55785;DHT22;41709;52.536;5.688;2023-02-26T18:20:49;3.40;71.80
55785;DHT22;41709;52.536;5.688;2023-02-26T18:23:16;3.40;71.70
55785;DHT22;41709;52.536;5.688;2023-02-26T18:25:43;3.40;71.90
55785;DHT22;41709;52.536;5.688;2023-02-26T18:28:19;3.40;71.90
55785;DHT22;41709;52.536;5.688;2023-02-26T18:30:46;3.40;71.80
55785;DHT22;41709;52.536;5.688;2023-02-26T18:33:12;3.50;71.70
55785;DHT22;41709;52.536;5.688;2023-02-26T18:35:41;3.50;71.80
55785;DHT22;41709;52.536;5.688;2023-02-26T18:38:14;3.40;71.80
55785;DHT22;41709;52.536;5.688;2023-02-26T18:40:40;3.40;71.80
55785;DHT22;41709;52.536;5.688;2023-02-26T18:43:06;3.40;71.80
55785;DHT22;41709;52.536;5.688;2023-02-26T18:45:32;3.50;71.80
55785;DHT22;41709;52.536;5.688;2023-02-26T18:47:57;3.40;71.80
55785;DHT22;41709;52.536;5.688;2023-02-26T18:50:23;3.40;72.00